AirNav   Pilot Hours Calculator
 
 1175 users online  

3CL3 World Trade Center Heliport
Long Beach, California, USA

GOING TO LONG BEACH?


FAA INFORMATION EFFECTIVE 25 MARCH 2021

Location

FAA Identifier: 3CL3
Lat/Long: 33-46-04.2300N 118-11-59.1800W
33-46.070500N 118-11.986333W
33.7678417,-118.1997722
(estimated)
Elevation: 398 ft. / 121 m (estimated)
Variation: 14E (1990)
Time zone: UTC -7 (UTC -8 during Standard Time)
Zip code: 90813

Heliport Operations

Heliport use: Private use. Permission required prior to landing
Activation date: 04/1993
Control tower: no
ARTCC: LOS ANGELES CENTER
FSS: HAWTHORNE FLIGHT SERVICE STATION
Attendance: UNATNDD
Segmented circle: no

Heliport Communications

WX ASOS at LGB (4 nm NE): PHONE 562-424-0572
WX AWOS-3PT at CPM (8 nm N): 127.150 (310-631-4958)
WX ASOS at HHR (11 nm NW): PHONE 310-973-8930
WX ASOS at FUL (13 nm NE): PHONE 714-870-1372
WX ASOS at LAX (15 nm NW): PHONE 310-568-1486
WX ASOS at SNA (17 nm E): PHONE 714-424-0590
WX ASOS at SMO (19 nm NW): PHONE 310-392-6453

Nearby radio navigation aids

VOR radial/distance  VOR name  Freq  Var
SLIr248/7.3SEAL BEACH VORTAC115.7015E
LAXr116/15.2LOS ANGELES VORTAC113.6015E
SMOr124/19.4SANTA MONICA VOR/DME110.8015E
ELBr269/24.0EL TORO VOR/DME117.2014E
SXCr010/26.0SANTA CATALINA VORTAC111.4015E
POMr213/27.7POMONA VORTAC110.4015E
VNYr137/31.0VAN NUYS VOR/DME113.1015E
PDZr240/34.6PARADISE VORTAC112.2015E
RALr239/(39.0)RIVERSIDE VOR112.4014E

Heliport Services

Runway Information

Helipad H1

Dimensions: 65 x 65 ft. / 20 x 20 m
Surface: asphalt
Latitude: 33-46.070500N
Longitude: 118-11.986333W
Elevation: 398.0 ft.
Traffic pattern: leftleft

Heliport Ownership and Management from official FAA records

Ownership: Privately-owned
Owner: W/GL OCEAN AVE LB HOLDINGS VII LLC
18301 VON KARMAN AVE., SUITE 250
IRVINE, CA 92612
Phone 949-331-1300
Manager: JAMIE DEIDRICH
1 WORLD TRADE CENTER
LONG BEACH, CA 90831
Phone (562) 495-8000

Additional Remarks

FOR CD CTC LOS ANGELES ARTCC AT 661-575-2079.

Instrument Procedures

There are no published instrument procedures at 3CL3.

Some nearby airports with instrument procedures:

KLGB - Long Beach Airport (Daugherty Field) (4 nm NE)
KTOA - Zamperini Field Airport (7 nm W)
KSLI - Los Alamitos Army Airfield (8 nm E)
KHHR - Jack Northrop Field/Hawthorne Municipal Airport (11 nm NW)
KFUL - Fullerton Municipal Airport (13 nm NE)
KLAX - Los Angeles International Airport (15 nm NW)
KSNA - John Wayne/Orange County Airport (17 nm E)
KSMO - Santa Monica Municipal Airport (19 nm NW)
 
Loc | Ops | Rwys | IFR | FBO | Links
Com | Nav | Svcs | Stats | Notes
Area around 3CL3 (World Trade Center Heliport)
 
Road maps at: MapQuest Bing Google
 
Aerial photo
No photo
 
Sectional chart

 
Airport distance calculator
Flying to World Trade Center Heliport? Find the distance to fly.

From to 3CL3

Sunrise and sunset
Times for 12-Apr-2021
 Local
(UTC-7)
 Zulu
(UTC)
Morning civil twilight06:0113:01
Sunrise06:2713:27
Sunset19:2002:20
Evening civil twilight19:4602:46

Current date and time
Zulu (UTC)  12-Apr-2021 23:56:33
Local (UTC-7)  12-Apr-2021 16:56:33
 
METAR
KLGB 
4nm NE 
122321Z 19008KT 9SM OVC029 17/10 A2983 RMK AO2 T01720100
KTOA 
6nm W 
122247Z 23012KT 8SM FEW020 SCT030 17/12 A2983
KSLI 
8nm E 
122258Z 22009KT 10SM SCT030 SCT250 19/12 A2983 RMK AO2A SLP104 T01890117
KHHR 
11nm NW 
122308Z 25011G17KT 10SM OVC028 17/10 A2983 RMK AO2 T01720100
KFUL 
12nm NE 
122253Z 21006KT 10SM OVC033 21/12 A2981 RMK AO2 SLP094 T02060117
KLAX 
14nm NW 
122253Z 25013KT 10SM FEW021 FEW028 SCT250 17/10 A2983 RMK AO2 SLP102 T01720100
KCQT 
17nm N 
122252Z AUTO 25003KT 10SM OVC031 19/10 A2982 RMK AO2 SLP095 T01890100 $
KSNA 
18nm E 
122253Z 24007KT 10SM SCT028 SCT250 19/10 A2983 RMK AO2 SLP100 T01890100 $
KSMO 
19nm NW 
122251Z 24008G16KT 10SM FEW013 SCT018 17/11 A2983 RMK AO2 SLP101 T01670111
TAF
KLGB 
4nm NE 
122005Z 1220/1318 19007KT P6SM BKN025 FM122130 20008KT P6SM SKC FM130400 VRB03KT P6SM OVC018 FM131000 VRB03KT P6SM OVC025
KSLI 
8nm E 
122102Z 1221/1403 21009KT 9999 SCT025 BKN035 QNH2985INS BECMG 1304/1305 22006KT 8000 BR FEW020 QNH2984INS BECMG 1306/1307 VRB06KT 8000 BR OVC020 QNH2987INS BECMG 1310/1311 VRB06KT 8000 -RA BR OVC008 QNH2985INS BECMG 1320/1321 19006KT 9999 NSW OVC020 QNH2992INS TX19/1223Z TN13/1315Z
KLAX 
14nm NW 
122102Z 1221/1324 26012KT P6SM SCT025 FM130200 26007KT P6SM OVC018 FM131000 VRB03KT P6SM OVC025 FM131900 26010KT P6SM SCT025 OVC035
KSNA 
18nm E 
122059Z 1221/1318 20007KT P6SM BKN025 FM122200 21009KT P6SM SCT025 FM130100 20006KT P6SM BKN021 FM131000 17005KT 6SM -DZ OVC016
KSMO 
19nm NW 
121733Z 1218/1318 VRB03KT P6SM BKN025 FM122000 24010KT P6SM FEW025 FM130300 VRB03KT P6SM OVC018 FM131000 VRB03KT P6SM OVC025
NOTAMs
Click for the latest NOTAMs
NOTAMs are issued by the DoD/FAA and will open in a separate window not controlled by AirNav.

 

 
 

Would you like to see your business listed on this page?

 If your business provides an interesting product or service to pilots, flight crews, aircraft, or users of the World Trade Center Heliport, you should consider listing it here.  To start the listing process, click on the button below
 
Add a business
 

Other Pages about World Trade Center Heliport

Update a link
 
Copyright © AirNav, LLC. All rights reserved. Privacy Policy  Contact